Latest Weather Observations for Point Perpendicular

IDN60801

Issued at 6:35 pm EDT Wednesday 22 October 2014 (issued every 30 minutes, with the page automatically refreshed every 10 minutes)

About weather observations | Map of weather stations | Latest weather observations for NSW | Other Formats
Station Details ID: 068151 Name: POINT PERPENDICULAR AWS Lat: -35.09 Lon: 150.80 Height: 85.0 m
Data from the previous 72 hours. | See also: Recent months at Point Perpendicular
Date/Time
EDT
Temp
°C
App
Temp
°C
Dew
Point
Rel
Hum
%
Delta-T
°C
Wind Press
QNH
hPa
Press
MSL
hPa
Rain
since 9 am
mm
Dir
 
Spd
km/h
Gust
km/h
Spd
kts
Gust
kts
22/06:30pm 18.1 12.5 13.4 74 2.7 NNE 35 48 19 26 1018.6 1018.5 0.0
22/06:21pm 18.3 13.1 13.4 73 2.8 NNE 33 52 18 28 1018.7 1018.6 0.0
22/06:00pm 18.5 12.2 13.4 72 2.9 NNE 39 52 21 28 1018.5 1018.4 0.0
22/05:30pm 19.1 12.7 13.1 68 3.4 NNE 39 59 21 32 1018.7 1018.6 0.0
22/05:01pm 19.7 14.0 12.9 65 3.9 NNE 35 57 19 31 1019.0 1018.9 0.0
22/05:00pm 19.8 14.0 12.8 64 4.0 NNE 35 50 19 27 1018.9 1018.8 0.0
22/04:45pm 19.3 12.7 12.6 65 3.8 NNE 39 57 21 31 1019.0 1018.9 0.0
22/04:30pm 19.4 13.1 12.4 64 3.9 NNE 37 50 20 27 1019.0 1018.9 0.0
22/04:15pm 19.8 13.3 13.0 65 3.9 NNE 39 57 21 31 1019.2 1019.1 0.0
22/04:00pm 20.2 13.7 12.9 63 4.1 NNE 39 52 21 28 1019.5 1019.4 0.0
22/03:30pm 20.0 14.1 12.5 62 4.2 NNE 35 57 19 31 1020.0 1019.9 0.0
22/03:27pm 20.0 14.1 12.3 61 4.3 NNE 35 57 19 31 1020.0 1019.9 0.0
22/03:00pm 20.1 13.9 12.8 63 4.1 NNE 37 54 20 29 1020.5 1020.4 0.0
22/02:34pm 20.0 13.1 11.7 59 4.6 NNE 39 57 21 31 1020.9 1020.8 0.0
22/02:30pm 20.2 13.9 12.2 60 4.5 NNE 37 52 20 28 1021.0 1020.9 0.0
22/02:00pm 20.3 14.1 11.5 57 4.9 NNE 35 52 19 28 1021.5 1021.4 0.0
22/01:32pm 20.1 13.7 10.8 55 5.1 NNE 35 59 19 32 1022.3 1022.2 0.0
22/01:30pm 20.1 14.2 11.1 56 4.9 NNE 33 50 18 27 1022.3 1022.2 0.0
22/01:00pm 20.1 13.2 10.2 53 5.3 NNE 37 50 20 27 1023.1 1023.0 0.0
22/12:30pm 19.9 13.7 10.0 53 5.3 NNE 33 46 18 25 1023.7 1023.5 0.0
22/12:00pm 19.8 13.1 9.7 52 5.4 NNE 35 48 19 26 1024.3 1024.1 0.0
22/11:30am 19.7 13.5 9.3 51 5.5 NNE 32 46 17 25 1025.0 1024.8 0.0
22/11:00am 19.1 13.2 9.0 52 5.3 N 30 41 16 22 1025.4 1025.2 0.0
22/10:30am 18.3 11.8 8.0 51 5.3 N 32 46 17 25 1025.8 1025.6 0.0
22/10:04am 18.3 12.3 8.6 53 5.0 N 30 48 16 26 1026.1 1025.9 0.0
22/10:00am 18.5 12.0 8.2 51 5.3 N 32 46 17 25 1026.1 1025.9 0.0
22/09:30am 17.8 12.9 8.6 55 4.8 N 24 39 13 21 1026.4 1026.2 0.0
22/09:00am 17.2 11.9 8.4 56 4.5 N 26 39 14 21 1026.6 1026.4 0.0
22/08:30am 17.1 12.9 8.3 56 4.5 N 20 33 11 18 1026.7 1026.5 0.0
22/08:00am 15.2 11.1 7.7 61 3.7 N 19 28 10 15 1026.8 1026.6 0.0
22/07:30am 15.3 11.4 8.5 64 3.5 N 19 28 10 15 1026.9 1026.7 0.0
22/07:00am 14.9 11.9 9.1 68 3.0 N 15 22 8 12 1027.0 1026.9 0.0
22/06:30am 14.8 11.2 8.5 66 3.2 N 17 26 9 14 1026.9 1026.7 0.0
22/06:00am 14.3 12.6 8.5 68 2.9 N 7 11 4 6 1026.9 1026.7 0.0
22/05:30am 14.4 12.5 9.2 71 2.7 N 9 13 5 7 1026.9 1026.7 0.0
22/05:00am 14.5 12.3 9.5 72 2.6 N 11 17 6 9 1026.8 1026.6 0.0
22/04:30am 14.7 12.0 9.1 69 2.9 N 13 20 7 11 1027.1 1027.0 0.0
22/04:00am 14.6 12.0 9.2 70 2.8 N 13 20 7 11 1027.3 1027.2 0.0
22/03:30am 14.6 13.1 9.2 70 2.8 N 7 11 4 6 1027.7 1027.6 0.0
22/03:00am 14.6 13.2 9.4 71 2.7 N 7 9 4 5 1028.1 1028.0 0.0
22/02:30am 14.6 12.9 9.8 73 2.5 N 9 13 5 7 1028.4 1028.3 0.0
22/02:00am 14.8 13.1 9.8 72 2.6 N 9 13 5 7 1028.9 1028.8 0.0
22/01:30am 15.2 12.9 8.9 66 3.2 N 11 20 6 11 1029.2 1029.1 0.0
22/01:00am 15.4 12.0 9.1 66 3.2 NNE 17 28 9 15 1029.7 1029.6 0.0
22/12:30am 15.5 11.5 9.0 65 3.3 NNE 20 28 11 15 1030.3 1030.2 0.0
22/12:00am 15.4 12.4 7.9 61 3.7 NNE 13 20 7 11 1030.7 1030.6 0.0
 
Date/Time
EDT
Temp
°C
App
Temp
°C
Dew
Point
Rel
Hum
%
Delta-T
°C
Wind Press
QNH
hPa
Press
MSL
hPa
Rain
since 9 am
mm
Dir
 
Spd
km/h
Gust
km/h
Spd
kts
Gust
kts
21/11:30pm 15.1 12.6 8.1 63 3.5 NNE 11 15 6 8 1030.8 1030.7 0.0
21/11:00pm 15.2 12.5 7.5 60 3.8 NNE 11 20 6 11 1030.9 1030.8 0.0
21/10:30pm 15.5 13.4 8.3 62 3.6 N 9 13 5 7 1031.1 1031.0 0.0
21/10:00pm 15.5 12.8 9.0 65 3.3 NNE 13 22 7 12 1031.3 1031.2 0.0
21/09:30pm 15.6 12.5 8.8 64 3.5 NE 15 22 8 12 1031.2 1031.1 0.0
21/09:00pm 15.5 13.1 8.5 63 3.5 NE 11 15 6 8 1031.3 1031.2 0.0
21/08:30pm 15.5 12.6 8.0 61 3.8 NE 13 20 7 11 1031.1 1031.0 0.0
21/08:00pm 15.5 13.0 8.3 62 3.6 NE 11 20 6 11 1030.9 1030.8 0.0
21/07:30pm 15.5 12.6 8.3 62 3.6 NE 13 20 7 11 1030.6 1030.5 0.0
21/07:00pm 15.6 12.4 8.4 62 3.6 NE 15 22 8 12 1030.4 1030.3 0.0
21/06:30pm 15.8 12.6 8.5 62 3.7 NNE 15 22 8 12 1030.4 1030.3 0.0
21/06:00pm 16.2 13.1 8.7 61 3.8 NE 15 22 8 12 1030.2 1030.1 0.0
21/05:30pm 16.5 13.7 8.5 59 4.1 NE 13 22 7 12 1030.3 1030.2 0.0
21/05:00pm 16.6 13.2 7.8 56 4.4 NE 15 24 8 13 1030.4 1030.3 0.0
21/04:30pm 16.8 13.0 7.7 55 4.6 NE 17 26 9 14 1030.4 1030.3 0.0
21/04:00pm 16.9 13.5 7.5 54 4.7 NNE 15 22 8 12 1030.7 1030.6 0.0
21/03:30pm 17.2 13.9 8.1 55 4.6 NNE 15 22 8 12 1030.9 1030.8 0.0
21/03:00pm 17.2 13.7 7.3 52 4.9 NE 15 26 8 14 1031.2 1031.1 0.0
21/02:30pm 17.1 13.7 7.5 53 4.8 NE 15 24 8 13 1031.3 1031.2 0.0
21/02:00pm 17.2 13.5 7.8 54 4.7 NE 17 26 9 14 1031.9 1031.8 0.0
21/01:30pm 17.1 13.7 7.7 54 4.8 NE 15 24 8 13 1032.2 1032.1 0.0
21/01:00pm 16.9 13.2 8.1 56 4.4 NE 17 26 9 14 1032.6 1032.5 0.0
21/12:30pm 16.7 13.4 8.1 57 4.4 ENE 15 24 8 13 1032.8 1032.7 0.0
21/12:00pm 17.5 14.7 8.6 56 4.6 ENE 13 22 7 12 1033.1 1033.0 0.0
21/11:30am 17.1 15.1 8.8 58 4.3 NE 9 17 5 9 1033.3 1033.2 0.0
21/11:00am 16.6 15.1 9.1 61 3.9 ENE 7 17 4 9 1033.5 1033.4 0.0
21/10:30am 15.5 15.1 9.6 68 3.1 N 2 7 1 4 1033.5 1033.4 0.0
21/10:00am 15.3 13.8 9.2 67 3.1 W 7 11 4 6 1033.5 1033.4 0.0
21/09:30am 14.7 13.6 10.7 77 2.1 WSW 7 11 4 6 1033.4 1033.3 0.0
21/09:00am 14.9 13.9 10.9 77 2.1 WNW 7 11 4 6 1033.2 1033.1 0.0
21/08:30am 14.9 13.0 9.1 68 3.0 NW 9 11 5 6 1032.9 1032.8 0.0
21/08:00am 15.6 13.6 6.3 54 4.5 E 6 13 3 7 1032.6 1032.5 0.0
21/07:30am 15.5 13.3 6.2 54 4.5 ESE 7 15 4 8 1032.3 1032.2 0.0
21/07:00am 15.4 13.4 6.1 54 4.5 ESE 6 7 3 4 1031.9 1031.8 0.0
21/06:30am 15.3 13.4 6.6 56 4.3 ESE 6 13 3 7 1031.8 1031.7 0.0
21/06:00am 15.2 13.2 6.2 55 4.3 SW 6 7 3 4 1031.6 1031.5 0.0
21/05:30am 15.1 14.2 6.1 55 4.3 CALM 0 0 0 0 1031.4 1031.3 0.0
21/05:00am 14.5 12.4 8.2 66 3.1 SW 9 15 5 8 1031.5 1031.4 0.0
21/04:30am 15.0 13.8 6.6 57 4.1 WSW 2 9 1 5 1031.5 1031.4 0.0
21/04:00am 15.1 13.2 6.7 57 4.1 S 6 9 3 5 1031.5 1031.4 0.0
21/03:30am 15.2 13.2 7.0 58 4.0 SE 7 17 4 9 1031.7 1031.6 0.0
21/03:00am 15.2 13.2 7.2 59 3.9 SE 7 15 4 8 1031.7 1031.6 0.0
21/02:30am 15.2 12.8 7.2 59 4.0 SSE 9 20 5 11 1031.8 1031.7 0.0
21/02:00am 15.2 13.2 7.2 59 3.9 SE 7 13 4 7 1031.9 1031.8 0.0
21/01:30am 15.1 12.5 7.9 62 3.6 SSE 11 20 6 11 1032.0 1031.9 0.0
21/01:00am 15.2 13.0 7.7 61 3.7 SE 9 15 5 8 1032.2 1032.1 0.0
21/12:30am 15.1 11.9 6.9 58 4.0 SE 13 22 7 12 1032.4 1032.3 0.0
21/12:00am 15.1 12.0 7.2 59 3.9 SE 13 24 7 13 1032.4 1032.3 0.0
 
Date/Time
EDT
Temp
°C
App
Temp
°C
Dew
Point
Rel
Hum
%
Delta-T
°C
Wind Press
QNH
hPa
Press
MSL
hPa
Rain
since 9 am
mm
Dir
 
Spd
km/h
Gust
km/h
Spd
kts
Gust
kts
20/11:30pm 15.1 11.7 7.6 61 3.7 SE 15 24 8 13 1032.4 1032.3 0.0
20/11:00pm 15.1 12.1 7.6 61 3.7 SE 13 24 7 13 1032.5 1032.4 0.0
20/10:30pm 15.2 12.0 8.4 64 3.4 SE 15 26 8 14 1032.4 1032.3 0.0
20/10:00pm 15.2 11.9 8.2 63 3.5 SE 15 24 8 13 1032.5 1032.4 0.0
20/09:30pm 15.3 11.8 8.8 65 3.3 SE 17 24 9 13 1032.4 1032.3 0.0
20/09:00pm 15.4 12.3 8.9 65 3.3 SE 15 26 8 14 1032.3 1032.2 0.0
20/08:30pm 15.3 12.3 9.2 67 3.1 SE 15 24 8 13 1032.1 1032.0 0.0
20/08:00pm 15.3 12.6 8.8 65 3.3 SE 13 22 7 12 1031.9 1031.8 0.0
20/07:30pm 15.3 12.1 8.5 64 3.5 SE 15 26 8 14 1031.6 1031.5 0.0
20/07:00pm 15.3 12.7 9.2 67 3.1 ESE 13 22 7 12 1031.3 1031.2 0.0
20/06:30pm 15.2 12.3 9.8 70 2.8 SSE 15 28 8 15 1031.0 1030.9 0.0
20/06:00pm 15.0 13.1 8.9 67 3.1 SSE 9 13 5 7 1031.1 1031.0 0.0
20/05:30pm 14.9 12.7 9.3 69 2.9 SE 11 22 6 12 1031.1 1031.0 0.0
20/05:00pm 14.8 11.5 9.4 70 2.8 SSE 17 32 9 17 1030.9 1030.8 0.0
20/04:30pm 15.6 12.6 9.3 66 3.3 SSE 15 24 8 13 1030.4 1030.3 0.0
20/04:00pm 16.1 12.4 8.1 59 4.0 SSE 17 28 9 15 1030.7 1030.6 0.0
20/03:30pm 15.9 11.7 7.4 57 4.2 S 19 30 10 16 1030.6 1030.5 0.0
20/03:00pm 15.7 11.3 7.2 57 4.2 SSE 20 28 11 15 1030.8 1030.7 0.0
20/02:30pm 15.7 11.6 8.7 63 3.6 SSE 20 32 11 17 1030.8 1030.7 0.0
20/02:00pm 15.6 11.1 8.6 63 3.5 S 22 33 12 18 1030.9 1030.8 0.0
20/01:30pm 15.3 10.2 9.2 67 3.1 S 26 41 14 22 1030.5 1030.4 0.0
20/01:00pm 15.9 10.8 9.1 64 3.5 S 26 41 14 22 1030.7 1030.6 0.0
20/12:30pm 15.7 11.6 10.2 70 2.9 SSE 22 33 12 18 1030.9 1030.8 0.0
20/12:00pm 15.3 10.6 10.5 73 2.5 S 26 43 14 23 1031.1 1031.0 0.0
20/11:30am 15.1 9.8 11.3 78 2.0 SSE 30 48 16 26 1030.8 1030.7 0.0
20/11:10am 15.4 10.0 11.0 75 2.4 S 30 48 16 26 1030.7 1030.6 0.0
20/11:00am 15.0 9.6 12.1 83 1.6 S 32 46 17 25 1030.4 1030.3 0.0
20/10:40am 15.6 10.2 11.0 74 2.5 S 30 52 16 28 1030.2 1030.1 0.0
20/10:30am 15.9 11.1 11.7 76 2.3 SSE 28 43 15 23 1030.4 1030.3 0.0
20/10:00am 15.6 9.9 11.8 78 2.1 S 33 48 18 26 1029.9 1029.8 0.0
20/09:34am 15.8 10.9 11.2 74 2.5 S 28 46 15 25 1029.5 1029.4 0.0
20/09:30am 15.8 10.4 11.0 73 2.6 S 30 46 16 25 1029.5 1029.4 0.0
20/09:00am 15.9 9.9 10.7 71 2.8 S 33 52 18 28 1028.8 1028.7 0.0
20/08:30am 15.9 9.5 10.7 71 2.8 S 35 63 19 34 1028.4 1028.3 0.0
20/08:00am 15.9 8.6 10.2 69 3.0 S 39 59 21 32 1027.6 1027.5 0.0
20/07:38am 16.1 10.2 10.4 69 3.0 S 32 50 17 27 1027.4 1027.3 0.0
20/07:30am 16.1 9.9 10.0 67 3.2 S 33 50 18 27 1027.0 1026.9 0.0
20/07:24am 16.2 10.5 11.2 72 2.7 SSE 32 50 17 27 1027.4 1027.3 0.0
20/07:00am 16.2 10.1 10.3 68 3.1 S 33 48 18 26 1026.7 1026.5 0.0
20/06:30am 16.2 10.1 10.5 69 3.0 S 33 52 18 28 1026.3 1026.1 0.0
20/06:00am 16.6 10.3 10.9 69 3.0 S 35 54 19 29 1025.5 1025.3 0.0
20/05:31am 16.7 10.4 11.2 70 3.0 S 35 54 19 29 1025.0 1024.8 0.0
20/05:30am 16.7 10.1 11.4 71 2.9 S 37 52 20 28 1025.0 1024.8 0.0
20/05:00am 16.8 10.2 11.5 71 2.9 S 37 61 20 33 1024.1 1023.9 0.0
20/04:30am 16.9 10.6 12.4 75 2.5 S 37 57 20 31 1023.6 1023.4 0.0
20/04:00am 17.1 11.3 12.8 76 2.4 S 35 54 19 29 1022.0 1021.9 0.0
20/03:44am 17.8 13.5 13.3 75 2.5 SSE 28 48 15 26 1021.6 1021.5 0.0
20/03:30am 18.6 13.7 13.7 73 2.8 S 32 46 17 25 1021.0 1020.9 0.0
20/03:26am 19.0 14.1 13.6 71 3.1 S 32 43 17 23 1021.1 1021.0 0.0
20/03:00am 20.6 18.4 10.7 53 5.4 NW 13 15 7 8 1020.7 1020.6 0.0
20/02:30am 20.3 18.2 11.2 56 5.0 NW 13 17 7 9 1020.7 1020.6 0.0
20/02:00am 20.9 18.5 11.3 54 5.3 N 15 17 8 9 1020.6 1020.5 0.0
20/01:30am 21.2 18.9 11.8 55 5.3 N 15 17 8 9 1020.7 1020.6 0.0
20/01:00am 18.4 17.0 14.5 78 2.3 N 15 20 8 11 1021.0 1020.9 0.0
20/12:30am 18.5 16.8 14.8 79 2.2 N 17 22 9 12 1021.1 1021.0 0.0
20/12:00am 17.9 16.4 15.3 85 1.5 N 17 22 9 12 1021.1 1021.0 0.0
 
Date/Time
EDT
Temp
°C
App
Temp
°C
Dew
Point
Rel
Hum
%
Delta-T
°C
Wind Press
QNH
hPa
Press
MSL
hPa
Rain
since 9 am
mm
Dir
 
Spd
km/h
Gust
km/h
Spd
kts
Gust
kts
19/11:30pm 17.9 16.4 15.2 84 1.6 N 17 22 9 12 1021.2 1021.1 0.0
19/11:00pm 17.7 16.1 15.0 84 1.6 N 17 22 9 12 1021.4 1021.3 0.0
19/10:30pm 17.8 15.3 15.1 84 1.6 N 22 28 12 15 1021.3 1021.2 0.0
19/10:00pm 18.1 16.2 15.2 83 1.7 N 19 24 10 13 1021.6 1021.5 0.0
19/09:30pm 18.4 15.9 15.1 81 1.9 N 22 32 12 17 1021.5 1021.4 0.0
19/09:00pm 18.4 15.4 14.9 80 2.0 N 24 33 13 18 1021.1 1021.0 0.0
19/08:30pm 18.3 14.9 14.8 80 2.0 NNE 26 33 14 18 1020.9 1020.8 0.0
19/08:00pm 18.4 14.9 14.5 78 2.3 NNE 26 33 14 18 1020.6 1020.5 0.0
19/07:30pm 18.4 14.4 14.1 76 2.5 NNE 28 39 15 21 1020.3 1020.2 0.0
19/07:00pm 18.5 13.9 13.4 72 2.9 NNE 30 43 16 23 1020.1 1020.0 0.0

Other Formats:

Comma delimited format used in spreadsheet applications
http://www.bom.gov.au/fwo/IDN60801/IDN60801.95940.axf

JavaScript Object Notation format (JSON) in row-major order
http://www.bom.gov.au/fwo/IDN60801/IDN60801.95940.json